createdAt,value
2022-08-05T00:12:17.024Z,2.30
2022-08-05T00:14:44.540Z,2.30
2022-08-05T00:17:18.599Z,2.12
2022-08-05T00:20:02.514Z,2.37
2022-08-05T00:22:29.741Z,2.17
2022-08-05T00:24:57.638Z,2.40
2022-08-05T00:27:28.453Z,2.50
2022-08-05T00:43:20.646Z,2.50
2022-08-05T00:45:47.971Z,2.47
2022-08-05T00:48:17.710Z,2.10
2022-08-05T00:51:50.458Z,2.37
2022-08-05T00:54:02.294Z,2.67
2022-08-05T01:12:18.727Z,2.08
2022-08-05T01:15:18.148Z,2.20
2022-08-05T01:18:03.518Z,2.28
2022-08-05T01:20:34.745Z,2.20
2022-08-05T01:23:23.727Z,2.10
2022-08-05T01:26:21.788Z,2.30
2022-08-05T01:48:39.122Z,2.85
2022-08-05T01:51:12.078Z,2.17
2022-08-05T01:53:57.723Z,2.10
2022-08-05T01:58:12.557Z,2.05
2022-08-05T02:13:53.302Z,2.20
2022-08-05T02:16:39.668Z,2.25
2022-08-05T02:19:17.697Z,2.20
2022-08-05T02:21:51.514Z,2.00
2022-08-05T02:24:23.409Z,2.47
2022-08-05T02:26:55.139Z,2.22
2022-08-05T02:43:14.074Z,2.20
2022-08-05T02:46:20.235Z,2.20
2022-08-05T02:49:35.877Z,2.25
2022-08-05T02:52:08.628Z,2.53
2022-08-05T02:54:37.590Z,2.47
2022-08-05T02:58:09.884Z,2.40
2022-08-05T02:59:57.644Z,2.75
2022-08-05T03:02:31.718Z,2.40
2022-08-05T03:04:59.409Z,2.42
2022-08-05T03:08:00.526Z,2.37
2022-08-05T03:10:21.961Z,2.42
2022-08-05T03:12:52.649Z,2.20
2022-08-05T03:15:20.808Z,2.25
2022-08-05T03:17:50.504Z,2.72
2022-08-05T03:58:37.974Z,2.70
2022-08-05T04:01:11.216Z,2.50
2022-08-05T04:03:42.472Z,2.70
2022-08-05T04:06:29.807Z,2.60
2022-08-05T04:08:56.964Z,2.87
2022-08-05T04:11:24.432Z,3.10
2022-08-05T04:28:17.216Z,3.33
2022-08-05T04:30:44.399Z,3.12
2022-08-05T04:33:11.985Z,3.70
2022-08-05T04:36:15.865Z,4.00
2022-08-05T04:38:39.586Z,3.87
2022-08-05T04:41:07.520Z,3.85
2022-08-05T04:59:38.443Z,3.75
2022-08-05T05:02:36.795Z,3.22
2022-08-05T05:06:38.918Z,3.42
2022-08-05T05:08:42.968Z,2.80
2022-08-05T05:11:10.699Z,2.85
2022-08-05T05:30:03.301Z,3.03
2022-08-05T05:32:26.628Z,2.90
2022-08-05T05:34:53.321Z,3.03
2022-08-05T05:37:20.232Z,2.65
2022-08-05T05:39:55.731Z,2.92
2022-08-05T05:42:23.191Z,3.00
2022-08-05T05:44:50.664Z,3.35
2022-08-05T06:00:48.084Z,3.00
2022-08-05T06:03:40.096Z,2.80
2022-08-05T06:14:44.544Z,2.45
2022-08-05T06:17:22.514Z,2.40
2022-08-05T06:19:57.150Z,2.30
2022-08-05T06:22:33.573Z,2.30
2022-08-05T06:25:01.414Z,2.60
2022-08-05T06:28:12.510Z,2.97
2022-08-05T06:33:10.744Z,2.60
2022-08-05T06:36:08.245Z,2.67
2022-08-05T06:38:36.067Z,2.20
2022-08-05T06:41:04.471Z,2.42
2022-08-05T06:59:30.077Z,2.22
2022-08-05T07:02:06.511Z,2.20
2022-08-05T07:04:33.277Z,1.90
2022-08-05T07:07:00.014Z,2.12
2022-08-05T07:09:26.631Z,2.25
2022-08-05T07:12:00.592Z,1.98
2022-08-05T07:14:46.030Z,2.00
2022-08-05T07:17:59.792Z,2.20
2022-08-05T07:22:47.853Z,1.85
2022-08-05T07:25:54.250Z,2.03
2022-08-05T07:28:05.896Z,1.80
2022-08-05T07:30:39.240Z,2.05
2022-08-05T07:33:09.417Z,2.28
2022-08-05T07:36:02.809Z,1.90
2022-08-05T07:38:33.446Z,2.00
2022-08-05T07:42:08.289Z,2.17
2022-08-05T07:44:06.312Z,2.10
2022-08-05T07:46:41.382Z,1.70
2022-08-05T07:49:14.962Z,2.12
2022-08-05T07:51:53.405Z,2.10
2022-08-05T07:54:35.826Z,2.10
2022-08-05T07:57:17.702Z,1.87
2022-08-05T07:59:50.464Z,1.90
2022-08-05T08:02:26.819Z,1.80
2022-08-05T08:04:58.803Z,2.00
2022-08-05T08:07:28.472Z,2.10
2022-08-05T08:09:55.682Z,2.20
2022-08-05T08:12:35.259Z,2.10
2022-08-05T08:15:05.477Z,2.10
2022-08-05T08:17:52.796Z,2.15
2022-08-05T08:21:00.107Z,2.17
2022-08-05T08:23:59.951Z,2.10
2022-08-05T08:25:59.961Z,2.03
2022-08-05T08:28:37.106Z,2.30
2022-08-05T08:31:17.508Z,2.00
2022-08-05T08:42:34.477Z,2.17
2022-08-05T08:45:22.543Z,1.98
2022-08-05T08:48:07.495Z,2.08
2022-08-05T08:51:03.296Z,2.00
2022-08-05T08:53:36.704Z,2.30
2022-08-05T08:56:06.142Z,2.25
2022-08-05T08:58:36.907Z,2.17
2022-08-05T09:01:07.530Z,2.25
2022-08-05T09:03:40.332Z,2.53
2022-08-05T09:06:11.107Z,2.12
2022-08-05T09:08:40.205Z,2.20
2022-08-05T09:11:12.129Z,2.28
2022-08-05T09:14:00.680Z,1.90
2022-08-05T09:16:28.930Z,2.10
2022-08-05T09:18:56.560Z,2.00
2022-08-05T09:22:22.291Z,2.33
2022-08-05T09:32:40.726Z,2.05
2022-08-05T09:35:26.429Z,1.90
2022-08-05T09:38:11.991Z,2.30
2022-08-05T09:40:52.485Z,1.95
2022-08-05T09:43:40.526Z,2.03
2022-08-05T09:46:31.272Z,1.95
2022-08-05T09:49:07.858Z,2.20
2022-08-05T09:51:49.649Z,2.37
2022-08-05T09:54:21.125Z,2.25
2022-08-05T09:56:56.024Z,2.00
2022-08-05T09:59:27.694Z,2.03
2022-08-05T10:01:58.167Z,2.03
2022-08-05T10:04:35.481Z,1.90
2022-08-05T10:07:20.389Z,2.28
2022-08-05T10:10:04.192Z,2.00
2022-08-05T10:12:53.770Z,2.03
2022-08-05T10:15:27.958Z,2.03
2022-08-05T10:18:12.972Z,2.47
2022-08-05T10:20:49.458Z,2.10
2022-08-05T10:23:55.373Z,2.08
2022-08-05T10:26:15.009Z,1.85
2022-08-05T10:32:47.342Z,2.08
2022-08-05T10:36:38.108Z,2.05
2022-08-05T10:40:03.254Z,2.00
2022-08-05T10:42:32.427Z,2.20
2022-08-05T10:45:01.563Z,2.00
2022-08-05T10:47:33.423Z,2.12
2022-08-05T10:52:58.767Z,2.10
2022-08-05T10:55:26.574Z,2.10
2022-08-05T10:58:11.485Z,2.05
2022-08-05T11:00:42.248Z,2.08
2022-08-05T11:03:25.258Z,2.15
2022-08-05T11:06:15.150Z,2.42
2022-08-05T11:09:10.890Z,2.08
2022-08-05T11:11:52.073Z,2.03
2022-08-05T11:14:49.361Z,2.00
2022-08-05T11:17:57.056Z,2.75
2022-08-05T11:20:33.552Z,2.10
2022-08-05T11:23:06.016Z,2.25
2022-08-05T11:26:04.344Z,2.10
2022-08-05T11:28:47.169Z,1.90
2022-08-05T11:31:19.531Z,2.20
2022-08-05T11:34:02.965Z,2.00
2022-08-05T11:36:44.698Z,2.40
2022-08-05T11:39:14.981Z,1.98
2022-08-05T11:42:01.741Z,2.30
2022-08-05T11:45:26.923Z,2.28
2022-08-05T11:48:15.602Z,2.47
2022-08-05T11:50:42.795Z,2.22
2022-08-05T11:53:09.901Z,2.22
2022-08-05T11:55:36.791Z,2.28
2022-08-05T11:58:09.175Z,2.17
2022-08-05T12:00:39.015Z,2.30
2022-08-05T12:03:29.284Z,2.40
2022-08-05T12:06:06.565Z,2.17
2022-08-05T12:11:20.477Z,2.22
2022-08-05T12:14:04.031Z,2.20
2022-08-05T12:16:38.571Z,2.10
2022-08-05T12:22:46.426Z,2.20
2022-08-05T12:25:14.274Z,2.10
2022-08-05T12:27:53.241Z,1.80
2022-08-05T12:30:23.269Z,2.25
2022-08-05T12:33:07.174Z,1.90
2022-08-05T12:35:45.559Z,2.47
2022-08-05T12:38:31.490Z,1.98
2022-08-05T12:40:59.195Z,2.00
2022-08-05T12:43:25.852Z,1.92
2022-08-05T12:45:58.926Z,2.30
2022-08-05T12:48:32.796Z,2.37
2022-08-05T12:52:10.949Z,1.80
2022-08-05T12:54:35.923Z,2.20
2022-08-05T12:57:23.280Z,1.90
2022-08-05T13:02:40.122Z,2.33
2022-08-05T13:05:08.290Z,2.10
2022-08-05T13:07:59.363Z,2.12
2022-08-05T13:10:26.738Z,1.98
2022-08-05T13:13:06.520Z,2.45
2022-08-05T13:15:41.464Z,2.10
2022-08-05T13:18:19.659Z,2.30
2022-08-05T13:20:49.212Z,2.50
2022-08-05T13:23:18.203Z,2.28
2022-08-05T13:25:59.468Z,2.03
2022-08-05T13:32:03.801Z,2.53
2022-08-05T13:34:31.326Z,2.20
2022-08-05T13:36:57.914Z,2.05
2022-08-05T13:40:14.207Z,2.10
2022-08-05T13:42:14.079Z,2.25
2022-08-05T13:44:45.031Z,1.80
2022-08-05T13:47:34.978Z,2.10
2022-08-05T13:50:06.786Z,1.95
2022-08-05T13:52:36.411Z,2.10
2022-08-05T13:55:08.003Z,2.17
2022-08-05T13:57:48.620Z,2.10
2022-08-05T14:00:18.518Z,2.40
2022-08-05T14:08:52.247Z,2.35
2022-08-05T14:11:20.965Z,2.28
2022-08-05T14:13:48.740Z,2.00
2022-08-05T14:16:21.905Z,2.25
2022-08-05T14:18:48.574Z,2.00
2022-08-05T14:22:08.877Z,2.10
2022-08-05T14:24:19.465Z,2.22
2022-08-05T14:26:56.607Z,2.00
2022-08-05T14:29:34.317Z,2.05
2022-08-05T14:32:12.427Z,2.00
2022-08-05T14:34:42.664Z,2.15
2022-08-05T14:37:47.300Z,2.00
2022-08-05T14:42:53.955Z,2.30
2022-08-05T14:45:22.514Z,2.20
2022-08-05T14:48:03.603Z,2.35
2022-08-05T14:50:33.040Z,2.03
2022-08-05T14:53:02.877Z,2.37
2022-08-05T14:55:39.868Z,2.10
2022-08-05T14:58:11.358Z,2.22
2022-08-05T15:00:58.761Z,1.90
2022-08-05T15:03:33.389Z,2.17
2022-08-05T15:06:08.331Z,2.10
2022-08-05T15:08:59.233Z,2.15
2022-08-05T15:12:01.441Z,1.60
2022-08-05T15:15:15.222Z,2.30
2022-08-05T15:17:45.770Z,1.92
2022-08-05T15:20:18.676Z,2.42
2022-08-05T15:22:54.017Z,2.00
2022-08-05T15:25:23.611Z,2.15
2022-08-05T15:28:08.221Z,2.22
2022-08-05T15:34:05.113Z,2.22
2022-08-05T15:36:03.573Z,1.92
2022-08-05T15:38:35.479Z,2.22
2022-08-05T15:41:22.937Z,2.03
2022-08-05T15:43:49.908Z,2.10
2022-08-05T15:46:55.681Z,2.05
2022-08-05T15:49:58.582Z,1.80
2022-08-05T15:52:51.894Z,2.00
2022-08-05T15:55:15.595Z,2.10
2022-08-05T15:57:43.424Z,2.00
2022-08-05T16:00:12.308Z,2.15
2022-08-05T16:02:43.584Z,1.75
2022-08-05T16:05:30.289Z,1.98
2022-08-05T16:07:57.278Z,1.80
2022-08-05T16:10:25.266Z,2.17
2022-08-05T16:12:52.284Z,2.20
2022-08-05T16:15:20.483Z,2.10
2022-08-05T16:17:57.801Z,2.15
2022-08-05T16:21:05.149Z,2.15
2022-08-05T16:23:53.278Z,2.10
2022-08-05T16:26:26.605Z,2.00
2022-08-05T16:28:54.621Z,2.05
2022-08-05T16:31:21.864Z,2.17
2022-08-05T16:33:49.018Z,2.25
2022-08-05T16:36:20.520Z,1.67
2022-08-05T16:38:58.307Z,1.80
2022-08-05T16:42:13.842Z,2.10
2022-08-05T16:44:16.987Z,2.00
2022-08-05T16:46:55.754Z,2.22
2022-08-05T16:49:23.435Z,1.90
2022-08-05T16:51:51.183Z,1.95
2022-08-05T16:54:55.210Z,1.75
2022-08-05T16:57:52.997Z,2.00
2022-08-05T17:00:33.994Z,2.20
2022-08-05T17:03:09.225Z,1.65
2022-08-05T17:05:50.192Z,1.70
2022-08-05T17:08:52.135Z,1.90
2022-08-05T17:11:08.872Z,2.30
2022-08-05T17:13:46.155Z,1.80
2022-08-05T17:16:29.750Z,2.00
2022-08-05T17:18:57.053Z,1.87
2022-08-05T17:21:23.936Z,1.80
2022-08-05T17:24:05.019Z,1.90
2022-08-05T17:26:38.354Z,2.12
2022-08-05T17:29:33.731Z,2.35
2022-08-05T17:32:44.138Z,2.35
2022-08-05T17:35:12.388Z,2.35
2022-08-05T17:37:45.149Z,2.00
2022-08-05T17:40:17.477Z,2.00
2022-08-05T17:42:51.388Z,2.50
2022-08-05T17:45:22.649Z,2.00
2022-08-05T17:48:04.829Z,2.15
2022-08-05T17:50:31.578Z,2.10
2022-08-05T17:53:04.707Z,2.40
2022-08-05T17:55:37.709Z,2.15
2022-08-05T17:58:12.439Z,2.83
2022-08-05T18:00:47.805Z,2.62
2022-08-05T18:04:03.889Z,3.75
2022-08-05T18:07:00.407Z,2.33
2022-08-05T18:09:59.476Z,2.50
2022-08-05T18:12:15.026Z,2.70
2022-08-05T18:14:49.226Z,2.50
2022-08-05T18:17:59.491Z,2.42
2022-08-05T18:20:05.603Z,2.22
2022-08-05T18:22:55.044Z,2.67
2022-08-05T18:25:25.165Z,3.15
2022-08-05T18:27:59.303Z,2.92
2022-08-05T18:30:29.255Z,2.60
2022-08-05T18:33:00.815Z,3.50
2022-08-05T18:36:00.640Z,3.28
2022-08-05T18:38:52.452Z,2.90
2022-08-05T18:41:55.981Z,3.25
2022-08-05T18:44:35.204Z,3.08
2022-08-05T18:47:15.781Z,3.37
2022-08-05T18:50:00.926Z,3.05
2022-08-05T18:52:35.717Z,3.25
2022-08-05T18:55:06.288Z,3.28
2022-08-05T18:57:52.710Z,3.30
2022-08-05T19:00:21.053Z,3.35
2022-08-05T19:02:55.557Z,3.37
2022-08-05T19:06:13.536Z,4.00
2022-08-05T19:08:12.192Z,3.70
2022-08-05T19:10:40.740Z,3.80
2022-08-05T19:13:36.200Z,3.53
2022-08-05T19:16:25.509Z,3.75
2022-08-05T19:18:57.163Z,3.28
2022-08-05T19:21:24.159Z,3.40
2022-08-05T19:24:05.166Z,3.55
2022-08-05T19:26:35.367Z,3.08
2022-08-05T19:29:20.745Z,3.50
2022-08-05T19:32:03.259Z,2.85
2022-08-05T19:34:31.158Z,2.78
2022-08-05T19:36:57.747Z,2.78
2022-08-05T19:39:24.414Z,3.12
2022-08-05T19:42:06.330Z,3.08
2022-08-05T19:44:38.728Z,3.17
2022-08-05T19:50:42.282Z,3.60
2022-08-05T19:53:09.469Z,3.42
2022-08-05T19:56:15.439Z,3.40
2022-08-05T19:58:29.221Z,3.20
2022-08-05T20:00:56.605Z,3.00
2022-08-05T20:03:26.208Z,2.90
2022-08-05T20:05:56.808Z,2.92
2022-08-05T20:08:24.838Z,3.00
2022-08-05T20:10:52.817Z,3.05
2022-08-05T20:13:54.576Z,3.05
2022-08-05T20:16:06.553Z,3.05
2022-08-05T20:18:36.442Z,3.00
2022-08-05T20:21:18.941Z,3.40
2022-08-05T20:24:16.051Z,4.00
2022-08-05T20:27:03.088Z,5.03
2022-08-05T20:29:29.774Z,4.32
2022-08-05T20:31:58.327Z,4.15
2022-08-05T20:34:27.420Z,4.18
2022-08-05T20:36:54.535Z,4.57
2022-08-05T20:39:22.235Z,4.35
2022-08-05T20:41:57.839Z,4.22
2022-08-05T20:44:30.612Z,4.57
2022-08-05T20:47:03.103Z,4.20
2022-08-05T20:52:05.059Z,4.85
2022-08-05T20:54:43.188Z,4.05
2022-08-05T20:58:05.017Z,4.05
2022-08-05T21:00:54.511Z,4.28
2022-08-05T21:03:23.479Z,3.67
2022-08-05T21:05:54.762Z,4.10
2022-08-05T21:08:41.375Z,3.87
2022-08-05T21:11:11.887Z,3.80
2022-08-05T21:13:56.439Z,3.92
2022-08-05T21:16:36.147Z,3.78
2022-08-05T21:19:03.807Z,3.70
2022-08-05T21:21:39.254Z,3.30
2022-08-05T21:24:12.696Z,3.37
2022-08-05T21:26:41.452Z,3.33
2022-08-05T21:29:12.616Z,3.50
2022-08-05T21:31:55.570Z,3.67
2022-08-05T21:34:35.381Z,3.50
2022-08-05T21:37:02.525Z,3.80
2022-08-05T21:39:29.672Z,3.55
2022-08-05T21:42:01.446Z,3.03
2022-08-05T21:44:29.972Z,3.60
2022-08-05T21:46:58.569Z,3.37
2022-08-05T21:49:58.859Z,3.42
2022-08-05T21:52:28.859Z,2.93
2022-08-05T21:54:57.349Z,3.17
2022-08-05T21:57:32.995Z,3.28
2022-08-05T22:00:06.327Z,3.20
2022-08-05T22:02:34.017Z,3.08
2022-08-05T22:11:17.748Z,3.30
2022-08-05T22:14:19.620Z,2.95
2022-08-05T22:16:51.543Z,3.08
2022-08-05T22:20:00.578Z,2.75
2022-08-05T22:22:04.814Z,3.05
2022-08-05T22:25:21.565Z,2.95
2022-08-05T22:28:10.808Z,3.47
2022-08-05T22:30:55.447Z,2.83
2022-08-05T22:33:57.168Z,2.75
2022-08-05T22:36:11.156Z,3.00
2022-08-05T22:38:42.533Z,2.65
2022-08-05T22:42:10.115Z,2.87
2022-08-05T22:47:30.127Z,2.70
2022-08-05T22:50:19.362Z,2.95
2022-08-05T22:52:49.690Z,3.05
2022-08-05T22:55:21.461Z,3.15
2022-08-05T22:57:49.981Z,2.78
2022-08-05T23:00:26.485Z,3.03
2022-08-05T23:02:54.151Z,3.25
2022-08-05T23:05:22.501Z,2.80
2022-08-05T23:07:50.450Z,3.00
2022-08-05T23:10:20.167Z,2.60
2022-08-05T23:12:51.162Z,2.97
2022-08-05T23:16:05.134Z,3.53
2022-08-05T23:18:50.771Z,2.85
2022-08-05T23:21:18.038Z,2.60
2022-08-05T23:23:44.862Z,3.00
2022-08-05T23:26:11.750Z,3.00
2022-08-05T23:28:38.329Z,3.22
2022-08-05T23:31:17.304Z,3.20
2022-08-05T23:34:06.756Z,3.28
2022-08-05T23:36:39.744Z,2.85
2022-08-05T23:39:16.300Z,2.97
2022-08-05T23:41:48.714Z,3.17
2022-08-05T23:44:16.723Z,3.07
2022-08-05T23:46:43.943Z,2.83
2022-08-05T23:49:36.685Z,3.00
2022-08-05T23:52:32.341Z,3.45
2022-08-05T23:55:09.227Z,2.65
2022-08-05T23:57:37.649Z,2.60
